createdAt,value
2019-03-31T00:01:07.577Z,58.87
2019-03-31T00:03:26.769Z,59.10
2019-03-31T00:05:58.138Z,59.43
2019-03-31T00:08:29.788Z,59.53
2019-03-31T00:11:00.847Z,58.92
2019-03-31T00:13:30.057Z,59.58
2019-03-31T00:15:58.847Z,59.21
2019-03-31T00:18:27.684Z,58.95
2019-03-31T00:20:56.721Z,59.41
2019-03-31T00:23:25.516Z,59.16
2019-03-31T00:25:54.397Z,59.53
2019-03-31T00:28:23.400Z,60.24
2019-03-31T00:30:52.897Z,59.34
2019-03-31T00:33:21.990Z,59.14
2019-03-31T00:35:51.433Z,59.82
2019-03-31T00:38:20.337Z,59.90
2019-03-31T00:40:49.389Z,60.24
2019-03-31T00:43:18.483Z,59.69
2019-03-31T00:45:47.678Z,59.54
2019-03-31T00:48:16.492Z,59.52
2019-03-31T00:50:45.285Z,59.29
2019-03-31T00:53:14.403Z,59.50
2019-03-31T00:55:43.274Z,59.99
2019-03-31T00:58:13.325Z,60.22
2019-03-31T01:01:35.495Z,59.84
2019-03-31T01:03:53.342Z,59.56
2019-03-31T01:06:24.075Z,60.59
2019-03-31T01:08:54.461Z,61.27
2019-03-31T01:11:24.962Z,61.73
2019-03-31T01:13:54.010Z,62.37
2019-03-31T01:16:23.041Z,62.45
2019-03-31T01:18:52.164Z,61.91
2019-03-31T01:21:21.144Z,61.96
2019-03-31T01:23:50.151Z,62.15
2019-03-31T01:26:21.273Z,62.10
2019-03-31T01:28:50.573Z,62.44
2019-03-31T01:31:19.778Z,62.70
2019-03-31T01:33:48.902Z,63.19
2019-03-31T01:36:18.412Z,63.30
2019-03-31T01:38:47.428Z,63.12
2019-03-31T01:41:16.789Z,63.04
2019-03-31T01:43:45.665Z,63.34
2019-03-31T01:46:15.906Z,63.53
2019-03-31T01:48:45.105Z,63.59
2019-03-31T01:51:13.971Z,63.76
2019-03-31T01:53:42.941Z,64.02
2019-03-31T01:56:11.806Z,64.59
2019-03-31T01:58:41.193Z,64.15
2019-03-31T02:01:12.567Z,63.33
2019-03-31T02:03:41.381Z,62.91
2019-03-31T02:06:10.372Z,62.89
2019-03-31T02:08:39.354Z,63.03
2019-03-31T02:11:08.251Z,63.23
2019-03-31T02:13:37.448Z,63.43
2019-03-31T02:16:06.305Z,64.39
2019-03-31T02:18:35.661Z,64.16
2019-03-31T02:21:04.511Z,64.20
2019-03-31T02:23:33.566Z,64.20
2019-03-31T02:26:02.686Z,64.20
2019-03-31T02:28:31.488Z,64.50
2019-03-31T02:31:00.640Z,65.08
2019-03-31T02:33:29.508Z,65.28
2019-03-31T02:35:58.298Z,65.64
2019-03-31T02:38:27.486Z,65.49
2019-03-31T02:40:56.687Z,65.77
2019-03-31T02:43:25.715Z,65.80
2019-03-31T02:45:55.999Z,66.36
2019-03-31T02:48:25.025Z,66.63
2019-03-31T02:50:54.215Z,66.87
2019-03-31T02:53:23.055Z,66.78
2019-03-31T02:55:52.237Z,66.51
2019-03-31T02:58:21.026Z,67.06
2019-03-31T03:00:49.841Z,66.71
2019-03-31T03:03:20.245Z,66.75
2019-03-31T03:05:49.302Z,66.58
2019-03-31T03:08:21.162Z,67.16
2019-03-31T03:10:51.927Z,67.77
2019-03-31T03:13:22.511Z,67.58
2019-03-31T03:16:20.222Z,67.48
2019-03-31T03:18:49.098Z,67.38
2019-03-31T03:21:18.446Z,67.70
2019-03-31T03:23:47.553Z,67.51
2019-03-31T03:26:16.498Z,67.89
2019-03-31T03:28:45.334Z,68.11
2019-03-31T03:31:16.574Z,67.92
2019-03-31T03:33:46.256Z,67.82
2019-03-31T03:36:15.425Z,67.28
2019-03-31T03:38:44.793Z,67.71
2019-03-31T03:41:13.633Z,67.65
2019-03-31T03:43:54.853Z,67.69
2019-03-31T03:46:14.483Z,68.09
2019-03-31T03:48:43.569Z,68.45
2019-03-31T03:51:12.503Z,68.60
2019-03-31T03:53:41.420Z,68.57
2019-03-31T03:56:11.351Z,68.46
2019-03-31T03:58:40.387Z,67.42
2019-03-31T04:01:12.949Z,67.37
2019-03-31T04:03:41.801Z,67.87
2019-03-31T04:06:10.625Z,67.87
2019-03-31T04:08:39.496Z,68.37
2019-03-31T04:11:21.705Z,68.54
2019-03-31T04:13:50.910Z,69.03
2019-03-31T04:16:19.703Z,69.30
2019-03-31T04:18:48.956Z,69.42
2019-03-31T04:21:17.910Z,69.59
2019-03-31T04:23:47.120Z,69.88
2019-03-31T04:26:16.325Z,70.01
2019-03-31T04:28:46.034Z,69.61
2019-03-31T04:31:14.897Z,69.97
2019-03-31T04:33:51.376Z,69.97
2019-03-31T04:36:15.166Z,69.91
2019-03-31T04:38:44.037Z,69.93
2019-03-31T04:41:12.953Z,70.33
2019-03-31T04:43:42.261Z,70.40
2019-03-31T04:46:11.143Z,70.74
2019-03-31T04:48:40.192Z,70.61
2019-03-31T04:51:08.984Z,70.76
2019-03-31T04:53:37.848Z,70.45
2019-03-31T04:56:07.139Z,70.42
2019-03-31T04:58:35.959Z,70.49
2019-03-31T05:01:04.748Z,70.82
2019-03-31T05:03:33.644Z,70.59
2019-03-31T05:06:02.759Z,70.68
2019-03-31T05:08:31.670Z,70.72
2019-03-31T05:11:01.885Z,70.85
2019-03-31T05:13:30.819Z,70.76
2019-03-31T05:15:59.939Z,70.56
2019-03-31T05:18:29.116Z,70.58
2019-03-31T05:20:58.406Z,70.70
2019-03-31T05:23:27.189Z,70.78
2019-03-31T05:25:56.043Z,70.43
2019-03-31T05:28:25.883Z,70.14
2019-03-31T05:30:55.936Z,69.74
2019-03-31T05:33:24.790Z,69.40
2019-03-31T05:35:53.695Z,69.68
2019-03-31T05:38:22.706Z,69.51
2019-03-31T05:40:51.580Z,69.58
2019-03-31T05:43:21.353Z,70.04
2019-03-31T05:45:52.436Z,69.86
2019-03-31T05:48:20.829Z,70.33
2019-03-31T05:50:49.756Z,70.09
2019-03-31T05:53:18.807Z,69.79
2019-03-31T05:55:47.679Z,69.46
2019-03-31T05:58:16.630Z,68.97
2019-03-31T06:00:49.756Z,68.69
2019-03-31T06:03:19.397Z,67.70
2019-03-31T06:05:48.701Z,67.44
2019-03-31T06:08:17.484Z,67.62
2019-03-31T06:10:46.508Z,67.27
2019-03-31T06:13:15.527Z,67.28
2019-03-31T06:15:44.435Z,67.39
2019-03-31T06:18:13.793Z,66.75
2019-03-31T06:20:42.950Z,66.25
2019-03-31T06:23:12.107Z,65.51
2019-03-31T06:25:41.122Z,64.76
2019-03-31T06:28:10.216Z,64.97
2019-03-31T06:30:41.649Z,65.14
2019-03-31T06:33:10.980Z,64.49
2019-03-31T06:35:40.482Z,64.28
2019-03-31T06:38:11.135Z,64.24
2019-03-31T06:40:42.115Z,64.48
2019-03-31T06:43:11.158Z,64.33
2019-03-31T06:45:40.273Z,63.92
2019-03-31T06:48:09.123Z,62.87
2019-03-31T06:50:38.170Z,63.03
2019-03-31T06:53:07.175Z,61.66
2019-03-31T06:55:36.444Z,61.92
2019-03-31T06:58:05.332Z,61.51
2019-03-31T07:00:34.381Z,60.25
2019-03-31T07:03:03.195Z,59.24
2019-03-31T07:05:32.459Z,59.06
2019-03-31T07:08:01.518Z,58.47
2019-03-31T07:10:30.277Z,59.56
2019-03-31T07:12:59.797Z,59.47
2019-03-31T07:15:29.069Z,58.87
2019-03-31T07:17:58.130Z,57.52
2019-03-31T07:20:26.958Z,58.06
2019-03-31T07:22:55.813Z,58.28
2019-03-31T07:25:24.639Z,57.77
2019-03-31T07:27:54.659Z,57.02
2019-03-31T07:30:23.529Z,57.03
2019-03-31T07:32:52.599Z,55.88
2019-03-31T07:35:21.562Z,54.83
2019-03-31T07:37:50.575Z,54.58
2019-03-31T07:40:20.012Z,55.14
2019-03-31T07:42:51.012Z,54.39
2019-03-31T07:45:19.793Z,54.65
2019-03-31T07:47:48.660Z,54.41
2019-03-31T07:50:17.703Z,53.53
2019-03-31T07:52:46.533Z,53.01
2019-03-31T07:55:15.405Z,53.50
2019-03-31T07:57:45.653Z,54.13
2019-03-31T08:00:17.224Z,51.65
2019-03-31T08:02:46.366Z,52.55
2019-03-31T08:05:15.184Z,52.01
2019-03-31T08:07:44.037Z,51.67
2019-03-31T08:10:12.935Z,50.67
2019-03-31T08:12:41.848Z,51.19
2019-03-31T08:15:10.648Z,50.98
2019-03-31T08:17:42.757Z,50.85
2019-03-31T08:20:11.631Z,50.08
2019-03-31T08:22:40.434Z,49.21
2019-03-31T08:25:11.213Z,48.78
2019-03-31T08:27:40.029Z,49.04
2019-03-31T08:30:10.821Z,49.10
2019-03-31T08:32:40.187Z,48.44
2019-03-31T08:35:09.601Z,48.39
2019-03-31T08:37:40.185Z,47.91
2019-03-31T08:40:11.904Z,47.61
2019-03-31T08:42:40.700Z,47.15
2019-03-31T08:45:09.876Z,46.04
2019-03-31T08:47:38.926Z,45.68
2019-03-31T08:50:08.700Z,44.56
2019-03-31T08:52:37.610Z,44.11
2019-03-31T08:55:06.923Z,44.82
2019-03-31T08:57:36.098Z,44.30
2019-03-31T09:00:06.409Z,44.16
2019-03-31T09:02:35.673Z,43.16
2019-03-31T09:05:06.587Z,42.80
2019-03-31T09:07:36.809Z,42.35
2019-03-31T09:10:06.783Z,41.79
2019-03-31T09:12:36.098Z,41.44
2019-03-31T09:15:09.831Z,40.72
2019-03-31T09:17:39.173Z,40.59
2019-03-31T09:20:08.879Z,40.00
2019-03-31T09:22:39.069Z,39.55
2019-03-31T09:25:10.216Z,38.40
2019-03-31T09:27:39.686Z,37.61
2019-03-31T09:30:09.936Z,36.48
2019-03-31T09:32:38.870Z,36.38
2019-03-31T09:35:08.584Z,36.65
2019-03-31T09:37:37.540Z,35.33
2019-03-31T09:40:08.002Z,34.86
2019-03-31T09:42:36.811Z,34.31
2019-03-31T09:45:06.360Z,33.65
2019-03-31T09:47:44.065Z,33.16
2019-03-31T09:50:36.589Z,32.93
2019-03-31T09:53:05.873Z,32.83
2019-03-31T09:55:35.288Z,32.75
2019-03-31T09:58:04.215Z,32.99
2019-03-31T10:00:47.381Z,32.95
2019-03-31T10:03:16.231Z,32.02
2019-03-31T10:05:47.959Z,31.59
2019-03-31T10:08:15.792Z,32.98
2019-03-31T10:10:44.655Z,31.99
2019-03-31T10:13:13.564Z,32.14
2019-03-31T10:15:42.495Z,31.70
2019-03-31T10:18:11.496Z,32.15
2019-03-31T10:20:40.720Z,31.55
2019-03-31T10:23:09.634Z,32.06
2019-03-31T10:25:38.404Z,31.11
2019-03-31T10:28:08.361Z,30.87
2019-03-31T10:30:37.595Z,30.39
2019-03-31T10:33:06.526Z,30.77
2019-03-31T10:35:35.697Z,29.85
2019-03-31T10:38:05.184Z,29.28
2019-03-31T10:40:34.117Z,28.25
2019-03-31T10:43:12.390Z,28.31
2019-03-31T10:45:42.082Z,27.97
2019-03-31T10:48:20.305Z,27.34
2019-03-31T10:50:46.692Z,26.71
2019-03-31T10:53:15.762Z,27.63
2019-03-31T10:55:45.698Z,27.60
2019-03-31T10:58:15.762Z,27.41
2019-03-31T11:00:45.014Z,26.70
